Time;durP1;ratioP1;P1;durP2;ratioP2;P2;SDS_P1;SDS_P2;PMS_P1;PMS_P2;Temp;Humidity;BMP_temperature;BMP_pressure;BME280_temperature;BME280_humidity;BME280_pressure;Samples;Min_cycle;Max_cycle;Signal;HPM_P1;HPM_P2
2023/08/11 00:01:30;;;;;;;1.50;0.90;;;;;;;19.68;67.17;100498.80;84146;279;136646;-67
2023/08/11 00:03:32;;;;;;;1.40;1.30;;;;;;;19.68;67.12;100498.11;84193;282;25219;-68
2023/08/11 00:05:38;;;;;;;3.60;1.40;;;;;;;19.68;67.06;100496.97;84126;282;136602;-65
2023/08/11 00:07:40;;;;;;;1.20;0.80;;;;;;;19.61;66.72;100488.96;84302;282;22660;-69
2023/08/11 00:09:42;;;;;;;1.30;0.80;;;;;;;19.61;67.01;100493.57;84139;282;136503;-66
2023/08/11 00:11:44;;;;;;;1.80;0.90;;;;;;;19.62;67.00;100498.13;84361;283;25233;-68
2023/08/11 00:13:46;;;;;;;1.40;1.30;;;;;;;19.62;66.48;100488.65;84050;283;136827;-65
2023/08/11 00:15:47;;;;;;;1.20;1.00;;;;;;;19.70;66.18;100497.23;84152;283;22753;-68
2023/08/11 00:17:52;;;;;;;1.30;0.80;;;;;;;19.68;66.31;100500.52;84132;282;136474;-66
2023/08/11 00:19:54;;;;;;;1.30;1.20;;;;;;;19.65;66.48;100495.20;84270;282;22547;-70
2023/08/11 00:21:56;;;;;;;2.10;0.90;;;;;;;19.68;66.73;100492.59;84097;282;136132;-69
2023/08/11 00:24:00;;;;;;;0.70;0.60;;;;;;;19.68;66.36;100495.13;84114;283;22610;-68
2023/08/11 00:26:03;;;;;;;3.20;1.10;;;;;;;19.69;66.48;100493.41;84259;282;137294;-69
2023/08/11 00:28:04;;;;;;;2.30;1.00;;;;;;;19.69;66.63;100496.66;83971;282;138193;-66
2023/08/11 00:30:08;;;;;;;2.30;1.30;;;;;;;19.70;66.42;100493.91;84202;283;25331;-68
2023/08/11 00:32:09;;;;;;;3.30;0.60;;;;;;;19.68;66.41;100486.77;84124;283;136374;-68
2023/08/11 00:34:11;;;;;;;1.70;1.30;;;;;;;19.65;66.26;100484.59;84182;282;22660;-66
2023/08/11 00:36:15;;;;;;;1.80;0.60;;;;;;;19.63;66.12;100487.83;84077;283;136714;-68
2023/08/11 00:38:16;;;;;;;1.10;1.00;;;;;;;19.62;66.35;100485.08;84199;284;22544;-67
2023/08/11 00:40:19;;;;;;;0.90;0.70;;;;;;;19.54;66.30;100473.77;84140;284;137909;-67
2023/08/11 00:42:21;;;;;;;1.10;1.00;;;;;;;19.63;66.40;100485.54;84268;282;25233;-65
2023/08/11 00:46:08;;;;;;;1.90;1.80;;;;;;;19.49;66.97;100482.59;82816;305;547116;-67
2023/08/11 00:48:10;;;;;;;1.90;0.70;;;;;;;19.47;67.09;100487.26;83592;297;135847;-67
2023/08/11 00:50:13;;;;;;;2.10;1.10;;;;;;;19.46;67.36;100477.89;83826;294;22698;-66
2023/08/11 00:52:17;;;;;;;1.10;0.80;;;;;;;19.45;67.32;100473.13;83678;284;136518;-67
2023/08/11 00:54:19;;;;;;;0.70;0.70;;;;;;;19.45;67.63;100474.36;83773;295;23082;-67
2023/08/11 00:56:22;;;;;;;3.40;1.00;;;;;;;19.46;67.38;100472.80;83677;295;135925;-66
2023/08/11 00:58:25;;;;;;;2.00;1.00;;;;;;;19.48;67.39;100470.88;83749;295;24904;-69
2023/08/11 01:00:28;;;;;;;3.30;0.90;;;;;;;19.47;67.24;100471.48;83345;294;363338;-67
2023/08/11 01:02:31;;;;;;;1.00;0.90;;;;;;;19.42;67.37;100471.50;83958;288;22582;-65
2023/08/11 01:04:33;;;;;;;1.20;0.70;;;;;;;19.39;67.56;100469.48;83998;287;137199;-68
2023/08/11 01:06:44;;;;;;;3.80;0.90;;;;;;;19.37;67.44;100464.48;83962;288;25984;-68
2023/08/11 01:08:59;;;;;;;1.40;0.80;;;;;;;19.39;67.40;100462.95;84299;287;135831;-64
2023/08/11 01:11:35;;;;;;;1.70;1.10;;;;;;;19.39;67.27;100458.91;84169;287;22619;-69
2023/08/11 01:13:44;;;;;;;3.90;1.20;;;;;;;19.31;67.75;100460.02;83868;287;136061;-71
2023/08/11 01:16:13;;;;;;;1.40;1.20;;;;;;;19.27;67.71;100448.31;84102;288;22563;-65
2023/08/11 01:18:19;;;;;;;3.30;1.10;;;;;;;19.28;67.76;100448.39;84102;287;22661;-66
2023/08/11 01:20:22;;;;;;;2.60;1.30;;;;;;;19.30;67.51;100446.36;84189;286;136018;-65
2023/08/11 01:22:28;;;;;;;0.70;0.70;;;;;;;19.35;67.55;100441.96;84033;288;22586;-66
2023/08/11 01:24:31;;;;;;;2.00;1.20;;;;;;;19.47;67.14;100441.56;83948;287;135885;-67
2023/08/11 01:26:33;;;;;;;1.40;1.10;;;;;;;19.50;67.05;100443.90;83839;276;22814;-66
2023/08/11 01:28:35;;;;;;;1.30;1.20;;;;;;;19.52;66.64;100445.93;83895;287;137037;-68
2023/08/11 01:30:37;;;;;;;2.20;1.00;;;;;;;19.49;66.75;100448.48;83976;287;22817;-64
2023/08/11 01:32:39;;;;;;;3.10;0.90;;;;;;;19.48;66.81;100446.61;83987;287;135505;-65
2023/08/11 01:34:41;;;;;;;1.80;1.10;;;;;;;19.41;67.04;100448.30;84158;287;25377;-64
2023/08/11 01:36:43;;;;;;;3.70;1.20;;;;;;;19.38;67.23;100441.60;83884;288;136786;-69
2023/08/11 01:38:44;;;;;;;3.20;0.80;;;;;;;19.37;67.22;100440.71;83944;287;23732;-68
2023/08/11 01:40:48;;;;;;;1.00;0.70;;;;;;;19.33;67.47;100438.31;83918;287;137428;-69
2023/08/11 01:42:51;;;;;;;1.10;0.90;;;;;;;19.27;67.87;100441.29;84139;286;25154;-69
2023/08/11 01:44:56;;;;;;;2.20;0.90;;;;;;;19.23;68.09;100439.33;84068;288;136153;-70
2023/08/11 01:46:59;;;;;;;1.30;1.20;;;;;;;19.21;68.30;100438.16;84044;287;23816;-68
2023/08/11 01:49:02;;;;;;;3.40;1.00;;;;;;;19.22;68.14;100440.40;83958;287;135960;-69
2023/08/11 01:51:04;;;;;;;1.70;1.40;;;;;;;19.20;68.17;100436.20;84036;288;25250;-66
2023/08/11 01:53:07;;;;;;;5.30;1.40;;;;;;;19.28;67.85;100432.81;83992;288;135743;-69
2023/08/11 01:55:10;;;;;;;4.10;1.10;;;;;;;19.25;67.98;100429.31;83953;287;22557;-68
2023/08/11 01:57:13;;;;;;;1.40;0.90;;;;;;;19.14;68.34;100427.98;83899;287;137276;-69
2023/08/11 01:59:15;;;;;;;0.80;0.70;;;;;;;19.14;68.68;100422.95;84176;287;24104;-69
2023/08/11 02:01:19;;;;;;;2.40;1.60;;;;;;;19.09;68.81;100419.73;83999;286;136147;-69
2023/08/11 02:03:21;;;;;;;3.30;1.00;;;;;;;19.04;69.11;100424.24;84121;287;22581;-67
2023/08/11 02:05:24;;;;;;;4.60;0.90;;;;;;;18.98;69.58;100421.16;84075;287;135925;-66
2023/08/11 02:07:27;;;;;;;1.70;1.60;;;;;;;18.96;69.78;100415.23;84108;285;22640;-71
2023/08/11 02:09:31;;;;;;;2.10;1.60;;;;;;;18.91;70.24;100411.72;83997;286;137429;-68
2023/08/11 02:11:36;;;;;;;5.30;1.40;;;;;;;18.82;70.49;100408.11;84034;288;25305;-65
2023/08/11 02:13:39;;;;;;;3.80;1.80;;;;;;;18.76;71.05;100407.48;83945;286;137480;-66
2023/08/11 02:15:40;;;;;;;2.70;1.70;;;;;;;18.72;71.21;100406.55;84193;286;25304;-65
2023/08/11 02:17:42;;;;;;;2.50;1.40;;;;;;;18.73;71.32;100404.67;84156;287;136081;-69
2023/08/11 02:19:45;;;;;;;2.30;1.00;;;;;;;18.68;71.39;100408.41;84476;286;22752;-68
2023/08/11 02:21:47;;;;;;;2.00;1.10;;;;;;;18.67;71.50;100408.61;84131;283;137834;-66
2023/08/11 02:23:49;;;;;;;2.00;0.90;;;;;;;18.67;71.76;100410.71;84065;286;24063;-67
2023/08/11 02:25:51;;;;;;;1.70;1.10;;;;;;;18.69;71.72;100410.58;84033;287;135277;-68
2023/08/11 02:27:53;;;;;;;4.90;1.10;;;;;;;18.71;71.81;100411.81;84075;287;25360;-66
2023/08/11 02:29:55;;;;;;;4.70;1.60;;;;;;;18.72;72.04;100412.05;85253;286;136410;-66
2023/08/11 02:31:57;;;;;;;2.50;1.20;;;;;;;18.69;72.21;100411.08;84289;285;22575;-68
2023/08/11 02:34:00;;;;;;;2.90;1.70;;;;;;;18.63;72.56;100408.33;84105;286;136205;-70
2023/08/11 02:36:02;;;;;;;3.30;2.30;;;;;;;18.57;72.77;100407.70;84081;287;22568;-71
2023/08/11 02:38:05;;;;;;;1.70;1.40;;;;;;;18.53;73.06;100409.98;84157;286;22551;-69
2023/08/11 02:40:09;;;;;;;2.00;1.60;;;;;;;18.51;73.16;100408.45;84041;286;136114;-69
2023/08/11 02:42:12;;;;;;;4.30;1.80;;;;;;;18.50;73.33;100409.55;84342;286;25383;-68
2023/08/11 02:44:14;;;;;;;5.90;2.30;;;;;;;18.47;73.44;100407.52;83901;287;136395;-70
2023/08/11 02:46:15;;;;;;;3.20;1.80;;;;;;;18.46;73.67;100407.44;84176;285;25304;-68
2023/08/11 02:48:18;;;;;;;2.20;1.90;;;;;;;18.49;73.73;100407.61;84077;287;137908;-68
2023/08/11 02:50:19;;;;;;;1.50;1.40;;;;;;;18.57;73.55;100407.36;84147;285;22665;-68
2023/08/11 02:52:21;;;;;;;4.00;1.40;;;;;;;18.61;73.24;100407.23;83917;287;137442;-68
2023/08/11 02:54:23;;;;;;;5.40;1.80;;;;;;;18.62;73.37;100409.85;83933;286;24702;-67
2023/08/11 02:56:25;;;;;;;3.90;1.70;;;;;;;18.60;73.68;100410.72;83932;286;136466;-66
2023/08/11 02:58:28;;;;;;;5.40;1.70;;;;;;;18.56;73.85;100412.45;83972;286;25145;-66
2023/08/11 03:00:30;;;;;;;1.70;1.60;;;;;;;18.52;74.15;100410.80;83935;263;135912;-67
2023/08/11 03:02:33;;;;;;;2.70;1.80;;;;;;;18.49;74.52;100412.89;83995;286;22606;-66
2023/08/11 03:04:36;;;;;;;2.50;1.20;;;;;;;18.47;74.85;100415.29;83927;286;137441;-66
2023/08/11 03:06:42;;;;;;;2.30;1.80;;;;;;;18.47;74.83;100414.96;84044;286;23346;-64
2023/08/11 03:08:44;;;;;;;4.20;1.50;;;;;;;18.47;74.81;100410.58;83949;287;136068;-67
2023/08/11 03:10:46;;;;;;;2.10;1.60;;;;;;;18.51;74.72;100409.90;84253;286;22577;-68
2023/08/11 03:13:00;;;;;;;1.20;1.10;;;;;;;18.50;74.86;100399.95;84099;286;136795;-68
2023/08/11 03:15:05;;;;;;;3.80;2.30;;;;;;;18.48;74.90;100396.13;83939;288;24137;-67
2023/08/11 03:17:09;;;;;;;4.50;2.30;;;;;;;18.47;75.30;100392.78;84204;286;136753;-67
2023/08/11 03:19:12;;;;;;;3.00;1.50;;;;;;;18.47;75.17;100395.73;84215;286;22592;-67
2023/08/11 03:21:14;;;;;;;1.30;1.20;;;;;;;18.45;75.20;100398.40;84082;286;137871;-65
2023/08/11 03:23:22;;;;;;;4.80;1.70;;;;;;;18.41;75.20;100403.49;84066;286;22579;-68
2023/08/11 03:25:24;;;;;;;2.20;1.80;;;;;;;18.39;75.48;100401.02;84110;287;136079;-68
2023/08/11 03:27:27;;;;;;;1.60;1.40;;;;;;;18.36;75.66;100397.20;84262;286;22665;-72
2023/08/11 03:29:29;;;;;;;1.80;1.60;;;;;;;18.36;75.72;100394.92;83967;287;136661;-66
2023/08/11 03:31:32;;;;;;;4.10;2.60;;;;;;;18.37;75.94;100396.35;84132;286;22672;-68
2023/08/11 03:33:34;;;;;;;2.60;1.80;;;;;;;18.38;75.83;100395.45;84034;287;140176;-65
2023/08/11 03:35:39;;;;;;;4.50;1.70;;;;;;;18.45;75.58;100394.45;84235;286;24108;-65
2023/08/11 03:37:41;;;;;;;4.00;2.10;;;;;;;18.47;75.61;100396.77;83963;285;136945;-66
2023/08/11 03:39:43;;;;;;;1.60;1.10;;;;;;;18.51;75.47;100398.90;84144;285;22552;-63
2023/08/11 03:41:46;;;;;;;5.20;2.10;;;;;;;18.53;75.49;100398.17;84077;285;136808;-68
2023/08/11 03:43:49;;;;;;;4.50;2.70;;;;;;;18.56;75.57;100396.67;84162;285;22603;-66
2023/08/11 03:45:51;;;;;;;1.80;1.70;;;;;;;18.62;75.31;100392.03;83985;285;137855;-64
2023/08/11 03:47:55;;;;;;;2.90;2.50;;;;;;;18.80;74.75;100392.56;84092;285;25009;-67
2023/08/11 03:49:58;;;;;;;5.10;2.10;;;;;;;19.17;73.85;100391.73;84157;285;136065;-67
2023/08/11 03:52:00;;;;;;;2.40;1.80;;;;;;;19.69;71.99;100389.75;84035;286;25218;-68
2023/08/11 03:54:03;;;;;;;2.10;1.80;;;;;;;20.23;69.11;100389.92;84150;284;22833;-69
2023/08/11 03:56:08;;;;;;;2.70;1.70;;;;;;;20.74;67.56;100390.44;83901;284;136569;-68
2023/08/11 03:58:14;;;;;;;3.20;1.70;;;;;;;21.23;64.86;100385.76;84003;286;22661;-64
2023/08/11 04:00:19;;;;;;;1.20;1.20;;;;;;;21.68;63.41;100390.98;83886;286;137116;-67
2023/08/11 04:02:28;;;;;;;2.30;1.70;;;;;;;22.13;61.60;100379.52;84851;285;24337;-66
2023/08/11 04:04:30;;;;;;;1.70;1.10;;;;;;;22.65;59.09;100391.79;83951;285;135928;-68
2023/08/11 04:06:32;;;;;;;1.20;1.10;;;;;;;23.03;57.79;100391.82;83965;284;25468;-68
2023/08/11 04:08:35;;;;;;;1.30;1.20;;;;;;;23.46;56.17;100389.09;83933;284;137093;-68
2023/08/11 04:10:38;;;;;;;2.50;1.60;;;;;;;23.83;54.78;100383.88;84131;287;22805;-68
2023/08/11 04:12:40;;;;;;;3.80;1.30;;;;;;;24.14;53.06;100386.86;83931;286;137485;-68
2023/08/11 04:14:41;;;;;;;1.40;1.10;;;;;;;24.32;52.60;100385.64;83991;285;22578;-67
2023/08/11 04:16:43;;;;;;;3.20;1.30;;;;;;;24.49;52.03;100388.73;83875;286;136392;-68
2023/08/11 04:18:45;;;;;;;2.10;1.40;;;;;;;24.66;51.07;100387.03;84124;285;25100;-70
2023/08/11 04:20:47;;;;;;;3.70;1.30;;;;;;;24.73;50.51;100386.77;83957;285;136252;-69
2023/08/11 04:22:49;;;;;;;3.60;1.30;;;;;;;24.68;50.00;100383.31;84029;285;22553;-67
2023/08/11 04:24:51;;;;;;;3.20;0.60;;;;;;;24.48;50.22;100385.36;83972;285;135834;-68
2023/08/11 04:26:53;;;;;;;2.20;1.10;;;;;;;24.15;50.77;100387.50;84022;285;25275;-68
2023/08/11 04:28:55;;;;;;;2.10;0.80;;;;;;;23.70;51.95;100392.27;83982;285;136253;-68
2023/08/11 04:30:57;;;;;;;2.40;1.10;;;;;;;23.21;53.51;100401.05;84069;285;22776;-68
2023/08/11 04:33:00;;;;;;;1.50;1.10;;;;;;;22.77;55.08;100397.41;84000;286;136309;-67
2023/08/11 04:35:06;;;;;;;2.70;1.20;;;;;;;22.55;56.32;100407.73;84001;286;24198;-67
2023/08/11 04:37:10;;;;;;;2.10;1.00;;;;;;;22.37;57.30;100419.55;83831;277;136787;-68
2023/08/11 04:39:12;;;;;;;4.10;1.40;;;;;;;22.16;57.85;100425.56;84128;285;22679;-66
2023/08/11 04:41:14;;;;;;;3.70;1.70;;;;;;;21.94;58.93;100428.09;83917;285;136274;-70
2023/08/11 04:43:17;;;;;;;4.40;1.20;;;;;;;21.67;60.11;100427.48;84205;284;22669;-67
2023/08/11 04:45:19;;;;;;;1.40;1.10;;;;;;;21.43;61.20;100433.05;84053;284;136685;-69
2023/08/11 04:47:21;;;;;;;1.80;1.20;;;;;;;21.20;62.45;100437.25;84171;285;22561;-68
2023/08/11 04:49:23;;;;;;;2.30;1.00;;;;;;;20.99;63.59;100438.61;83926;285;136334;-66
2023/08/11 04:51:25;;;;;;;2.90;1.50;;;;;;;20.84;64.16;100440.51;84016;285;22549;-68
2023/08/11 04:53:27;;;;;;;4.70;1.40;;;;;;;20.66;64.80;100427.90;83947;285;136250;-67
2023/08/11 04:55:30;;;;;;;1.60;1.50;;;;;;;20.65;65.35;100437.25;83991;286;23068;-71
2023/08/11 04:57:34;;;;;;;1.50;1.40;;;;;;;20.67;65.89;100442.05;84031;285;136613;-67
2023/08/11 04:59:38;;;;;;;1.70;1.60;;;;;;;20.71;66.27;100435.92;84069;285;22750;-67
2023/08/11 05:01:40;;;;;;;3.90;1.90;;;;;;;20.80;66.28;100439.00;83762;285;137369;-65
2023/08/11 05:03:42;;;;;;;2.30;2.10;;;;;;;20.89;66.16;100438.77;84018;284;25134;-68
2023/08/11 05:05:49;;;;;;;2.50;1.90;;;;;;;21.13;65.74;100438.21;84042;285;136229;-68
2023/08/11 05:07:52;;;;;;;1.80;1.60;;;;;;;21.26;65.08;100438.76;84226;282;24060;-69
2023/08/11 05:09:53;;;;;;;2.40;1.10;;;;;;;21.25;65.02;100437.29;84135;282;136088;-68
2023/08/11 05:11:55;;;;;;;2.20;1.50;;;;;;;21.10;65.39;100434.54;84196;282;24204;-64
2023/08/11 05:13:57;;;;;;;2.70;1.10;;;;;;;20.92;65.87;100434.20;84162;282;136067;-66
2023/08/11 05:15:59;;;;;;;2.70;1.40;;;;;;;20.84;66.27;100433.35;84186;282;22565;-66
2023/08/11 05:18:01;;;;;;;2.10;1.40;;;;;;;20.80;67.00;100431.15;84100;282;136252;-66
2023/08/11 05:20:08;;;;;;;1.90;1.20;;;;;;;20.80;67.14;100433.70;84121;270;136797;-66
2023/08/11 05:22:10;;;;;;;4.10;1.60;;;;;;;20.69;67.94;100432.48;84619;280;25433;-69
2023/08/11 05:24:12;;;;;;;2.10;1.90;;;;;;;20.60;68.55;100432.80;84022;282;136786;-66
2023/08/11 05:26:14;;;;;;;1.90;1.20;;;;;;;20.49;69.22;100419.81;84331;282;24299;-67
2023/08/11 05:28:16;;;;;;;2.30;1.40;;;;;;;20.66;69.68;100432.98;84104;282;136615;-68
2023/08/11 05:30:24;;;;;;;3.40;1.30;;;;;;;20.79;69.56;100430.48;84209;283;22551;-68
2023/08/11 05:32:26;;;;;;;1.60;1.40;;;;;;;20.97;68.55;100428.61;84486;283;136932;-69
2023/08/11 05:34:28;;;;;;;4.10;1.50;;;;;;;21.01;68.32;100431.15;84130;282;22682;-68
2023/08/11 05:36:30;;;;;;;2.30;1.30;;;;;;;20.97;68.24;100433.11;84023;282;137521;-68
2023/08/11 05:38:32;;;;;;;4.40;1.70;;;;;;;20.85;69.00;100436.71;84094;285;22591;-64
2023/08/11 05:40:33;;;;;;;2.40;1.40;;;;;;;20.84;69.09;100432.11;84099;283;136424;-64
2023/08/11 05:42:38;;;;;;;1.40;1.20;;;;;;;21.05;68.74;100437.52;84399;282;26106;-64
2023/08/11 05:44:40;;;;;;;2.80;1.80;;;;;;;21.20;68.42;100436.21;84287;283;136431;-63
2023/08/11 05:46:42;;;;;;;1.60;1.10;;;;;;;21.48;67.23;100436.70;84248;279;22548;-65
2023/08/11 05:48:48;;;;;;;3.50;1.60;;;;;;;21.72;66.33;100434.84;84169;282;137059;-68
2023/08/11 05:50:50;;;;;;;1.80;1.00;;;;;;;21.95;65.05;100433.42;84302;282;22548;-63
2023/08/11 05:52:52;;;;;;;1.70;1.20;;;;;;;22.13;64.15;100435.91;84094;282;136554;-66
2023/08/11 05:54:54;;;;;;;2.20;0.90;;;;;;;22.29;63.78;100438.68;84087;284;25334;-63
2023/08/11 05:56:57;;;;;;;1.50;1.20;;;;;;;22.46;63.01;100439.27;84023;283;136428;-63
2023/08/11 05:58:59;;;;;;;2.10;1.50;;;;;;;22.58;62.45;100439.15;84205;283;24408;-64
2023/08/11 06:01:01;;;;;;;2.10;1.40;;;;;;;22.71;61.93;100435.06;84122;283;136430;-65
2023/08/11 06:03:03;;;;;;;1.70;1.50;;;;;;;22.81;61.50;100428.84;84421;283;25134;-64
2023/08/11 06:05:06;;;;;;;1.80;1.00;;;;;;;22.92;61.38;100427.89;84128;282;136965;-65
2023/08/11 06:07:07;;;;;;;1.90;1.60;;;;;;;23.15;61.03;100423.39;84184;282;22557;-65
2023/08/11 06:09:10;;;;;;;3.30;1.50;;;;;;;23.43;59.99;100409.31;84112;283;136534;-63
2023/08/11 06:11:12;;;;;;;8.20;1.40;;;;;;;23.82;59.08;100411.05;84128;282;22740;-66
2023/08/11 06:13:13;;;;;;;3.40;1.60;;;;;;;24.04;57.65;100410.19;84128;282;136851;-66
2023/08/11 06:15:15;;;;;;;1.30;1.20;;;;;;;24.02;57.47;100414.77;84207;282;22552;-61
2023/08/11 06:17:17;;;;;;;1.40;1.30;;;;;;;23.92;57.76;100410.33;84170;283;136574;-61
2023/08/11 06:19:19;;;;;;;3.10;1.50;;;;;;;23.93;58.04;100409.19;84220;282;22559;-61
2023/08/11 06:21:21;;;;;;;2.50;1.40;;;;;;;24.07;57.98;100409.73;84092;283;136019;-65
2023/08/11 06:23:23;;;;;;;1.90;1.50;;;;;;;24.21;57.65;100410.09;84263;282;22547;-70
2023/08/11 06:25:28;;;;;;;2.70;1.30;;;;;;;24.28;57.01;100410.17;84154;282;136469;-65
2023/08/11 06:27:31;;;;;;;8.10;1.60;;;;;;;24.31;57.02;100408.27;84188;282;25223;-65
2023/08/11 06:29:33;;;;;;;3.20;1.30;;;;;;;24.31;57.11;100402.38;84088;282;136516;-64
2023/08/11 06:31:36;;;;;;;4.60;1.50;;;;;;;24.32;57.61;100406.34;84155;282;23781;-68
2023/08/11 06:33:38;;;;;;;5.60;1.10;;;;;;;24.36;57.12;100403.60;84007;282;136424;-61
2023/08/11 06:35:39;;;;;;;1.10;1.00;;;;;;;24.53;56.75;100408.17;84136;282;25371;-63
2023/08/11 06:37:41;;;;;;;2.80;1.30;;;;;;;24.76;55.28;100412.38;84013;283;136408;-66
2023/08/11 06:39:43;;;;;;;3.20;1.30;;;;;;;24.80;54.77;100411.43;84159;283;25290;-65
2023/08/11 06:41:45;;;;;;;1.50;1.20;;;;;;;24.82;54.89;100407.00;84079;282;136093;-66
2023/08/11 06:43:48;;;;;;;4.60;1.20;;;;;;;24.92;54.78;100410.32;84219;282;22555;-64
2023/08/11 06:45:52;;;;;;;2.20;0.90;;;;;;;25.02;53.80;100408.34;84111;282;136173;-68
2023/08/11 06:47:54;;;;;;;1.20;0.80;;;;;;;25.04;53.49;100405.70;84262;282;25177;-61
2023/08/11 06:49:57;;;;;;;2.00;1.10;;;;;;;24.99;53.77;100401.11;84130;283;135976;-65
2023/08/11 06:51:59;;;;;;;2.30;0.90;;;;;;;25.01;54.21;100398.27;84098;283;25180;-65
2023/08/11 06:54:03;;;;;;;3.90;1.40;;;;;;;25.15;54.36;100397.94;84252;283;135763;-65
2023/08/11 06:56:05;;;;;;;3.50;0.70;;;;;;;25.22;53.79;100392.82;84087;283;137492;-64
2023/08/11 06:58:07;;;;;;;0.90;0.90;;;;;;;25.25;53.64;100389.21;84173;282;23975;-70
2023/08/11 07:00:09;;;;;;;0.90;0.60;;;;;;;25.29;53.12;100387.39;84137;282;136700;-67
2023/08/11 07:02:11;;;;;;;2.60;1.20;;;;;;;25.23;53.03;100389.88;84183;282;22539;-65
2023/08/11 07:04:13;;;;;;;1.80;0.90;;;;;;;25.16;53.35;100389.38;84941;283;137935;-66
2023/08/11 07:06:15;;;;;;;2.20;1.00;;;;;;;25.06;53.83;100389.92;84015;284;24106;-64
2023/08/11 07:08:21;;;;;;;2.90;1.10;;;;;;;25.01;53.60;100391.92;84137;283;137792;-66
2023/08/11 07:10:22;;;;;;;2.90;0.50;;;;;;;24.95;53.85;100391.10;84362;283;22915;-65
2023/08/11 07:12:24;;;;;;;3.00;1.10;;;;;;;24.93;53.80;100385.38;84007;284;137088;-62
2023/08/11 07:14:26;;;;;;;2.50;1.00;;;;;;;24.99;53.40;100392.39;84095;283;22572;-64
2023/08/11 07:16:29;;;;;;;4.60;0.70;;;;;;;24.86;53.55;100396.45;84036;282;137762;-70
2023/08/11 07:18:30;;;;;;;1.40;0.70;;;;;;;24.76;54.40;100389.91;84215;285;22691;-68
2023/08/11 07:20:32;;;;;;;1.40;1.30;;;;;;;24.77;55.38;100390.73;84135;282;136324;-67
2023/08/11 07:22:34;;;;;;;0.80;0.80;;;;;;;24.99;54.91;100388.24;84181;283;22580;-61
2023/08/11 07:24:36;;;;;;;4.30;1.30;;;;;;;25.15;54.71;100386.80;84403;282;136076;-66
2023/08/11 07:26:39;;;;;;;1.50;0.90;;;;;;;25.18;54.23;100391.48;84223;282;25314;-63
2023/08/11 07:28:40;;;;;;;4.20;1.10;;;;;;;25.08;54.23;100391.33;84069;282;136355;-65
2023/08/11 07:30:42;;;;;;;2.40;1.50;;;;;;;25.03;54.77;100392.52;84151;270;27715;-66
2023/08/11 07:32:44;;;;;;;2.30;0.70;;;;;;;25.01;54.76;100393.57;84089;282;136257;-64
2023/08/11 07:34:46;;;;;;;1.10;0.70;;;;;;;24.86;54.76;100390.18;84073;283;23536;-66
2023/08/11 07:36:48;;;;;;;1.10;1.00;;;;;;;24.65;55.53;100382.06;84045;282;136466;-65
2023/08/11 07:38:50;;;;;;;1.20;1.00;;;;;;;24.54;55.98;100382.24;84135;283;23732;-63
2023/08/11 07:40:56;;;;;;;2.80;1.50;;;;;;;24.54;56.16;100388.78;84154;283;136346;-62
2023/08/11 07:42:59;;;;;;;2.50;0.80;;;;;;;24.60;57.07;100390.88;84231;283;25223;-63
2023/08/11 07:45:01;;;;;;;3.50;1.10;;;;;;;24.70;57.10;100391.91;84351;282;136505;-66
2023/08/11 07:47:03;;;;;;;2.20;0.90;;;;;;;24.76;57.13;100402.89;84196;282;22553;-62
2023/08/11 07:49:05;;;;;;;1.00;0.90;;;;;;;24.81;56.03;100405.70;84226;282;136364;-63
2023/08/11 07:51:06;;;;;;;3.70;1.30;;;;;;;24.78;56.02;100402.82;84196;282;22561;-63
2023/08/11 07:53:09;;;;;;;2.30;1.80;;;;;;;24.67;56.77;100402.11;84167;282;136049;-61
2023/08/11 07:55:11;;;;;;;3.80;0.90;;;;;;;24.60;57.70;100397.48;84239;283;25418;-64
2023/08/11 07:57:14;;;;;;;6.70;1.20;;;;;;;24.56;58.28;100401.09;84242;282;136330;-63
2023/08/11 07:59:18;;;;;;;2.20;0.80;;;;;;;24.60;58.64;100400.37;84465;283;25691;-62
2023/08/11 08:01:20;;;;;;;4.20;1.50;;;;;;;24.68;58.76;100401.73;84086;283;136011;-66
2023/08/11 08:03:23;;;;;;;3.10;1.20;;;;;;;24.71;58.84;100404.77;84222;283;25298;-62
2023/08/11 08:05:25;;;;;;;0.90;0.80;;;;;;;24.76;58.90;100405.13;84329;282;137901;-64
2023/08/11 08:07:27;;;;;;;2.00;1.30;;;;;;;24.72;59.24;100405.42;84260;282;25227;-61
2023/08/11 08:09:33;;;;;;;5.70;1.40;;;;;;;24.61;59.88;100410.06;84095;283;136491;-65
2023/08/11 08:11:35;;;;;;;3.90;0.90;;;;;;;24.58;60.72;100411.16;84261;283;22549;-65
2023/08/11 08:13:37;;;;;;;5.60;1.40;;;;;;;24.49;61.24;100410.59;84142;283;136319;-62
2023/08/11 08:15:39;;;;;;;1.90;1.40;;;;;;;24.42;61.50;100405.48;84188;283;25180;-65
2023/08/11 08:17:41;;;;;;;1.50;1.40;;;;;;;24.44;62.03;100405.48;84145;282;136437;-62
2023/08/11 08:19:42;;;;;;;1.90;1.30;;;;;;;24.53;62.41;100403.39;84136;282;26222;-66
2023/08/11 08:21:46;;;;;;;1.80;1.40;;;;;;;24.59;62.68;100407.61;84051;283;136237;-64
2023/08/11 08:23:49;;;;;;;2.80;1.60;;;;;;;24.59;63.97;100406.95;84237;282;22710;-64
2023/08/11 08:25:51;;;;;;;5.40;2.60;;;;;;;24.62;63.96;100407.05;84112;282;136399;-62
2023/08/11 08:27:53;;;;;;;2.80;1.60;;;;;;;24.62;64.15;100401.48;84281;282;22576;-67
2023/08/11 08:30:10;;;;;;;1.00;0.80;;;;;;;24.61;64.60;100404.05;84356;282;24241;-65
2023/08/11 08:32:13;;;;;;;2.00;1.00;;;;;;;24.61;65.30;100399.48;84336;283;136579;-60
2023/08/11 08:34:15;;;;;;;3.50;1.30;;;;;;;24.62;64.65;100403.23;84102;282;24141;-65
2023/08/11 08:36:16;;;;;;;1.70;0.90;;;;;;;24.53;65.08;100399.14;84153;282;138001;-65
2023/08/11 08:38:18;;;;;;;2.20;1.50;;;;;;;24.58;64.86;100416.06;84172;281;22548;-63
2023/08/11 08:40:21;;;;;;;2.00;1.00;;;;;;;24.55;64.52;100420.92;84147;281;136606;-63
2023/08/11 08:42:25;;;;;;;2.80;0.90;;;;;;;24.49;62.93;100417.98;84163;282;26264;-63
2023/08/11 08:44:27;;;;;;;1.00;0.70;;;;;;;24.36;62.48;100414.66;84549;283;136502;-68
2023/08/11 08:46:33;;;;;;;1.60;0.40;;;;;;;24.23;62.85;100413.02;84266;282;23001;-67
2023/08/11 08:48:48;;;;;;;1.20;1.20;;;;;;;24.12;63.43;100404.23;84083;283;136419;-64
2023/08/11 08:50:50;;;;;;;1.80;1.10;;;;;;;24.15;63.73;100408.30;84185;282;22578;-64
2023/08/11 08:52:53;;;;;;;6.00;1.10;;;;;;;24.29;63.60;100409.14;84267;282;136325;-64
2023/08/11 08:54:56;;;;;;;2.60;0.70;;;;;;;24.39;64.19;100409.80;84105;282;22580;-60
2023/08/11 08:56:59;;;;;;;0.90;0.70;;;;;;;24.47;63.83;100416.42;83950;282;136563;-63
2023/08/11 08:59:01;;;;;;;2.50;1.10;;;;;;;24.53;63.88;100415.65;83803;282;466592;-64
2023/08/11 09:01:03;;;;;;;2.10;1.10;;;;;;;24.55;64.22;100415.87;84127;283;136225;-68
2023/08/11 09:03:05;;;;;;;2.10;1.10;;;;;;;24.59;64.22;100413.93;84166;283;22576;-62
2023/08/11 09:05:08;;;;;;;1.70;0.60;;;;;;;24.66;63.83;100403.77;84015;282;136172;-63
2023/08/11 09:07:10;;;;;;;5.70;0.70;;;;;;;24.65;64.67;100401.74;84192;283;24901;-62
2023/08/11 09:09:15;;;;;;;1.30;1.00;;;;;;;24.68;66.01;100401.84;84099;283;136278;-63
2023/08/11 09:11:18;;;;;;;2.60;1.50;;;;;;;24.76;65.76;100410.58;84171;282;22560;-64
2023/08/11 09:13:20;;;;;;;1.80;1.20;;;;;;;24.74;65.92;100405.35;84145;282;136469;-63
2023/08/11 09:15:24;;;;;;;2.10;1.00;;;;;;;24.66;67.00;100406.48;84137;283;22552;-62
2023/08/11 09:17:27;;;;;;;3.10;0.90;;;;;;;24.64;67.68;100414.14;84061;283;137805;-63
2023/08/11 09:19:29;;;;;;;2.40;1.10;;;;;;;24.65;67.90;100408.67;84208;283;22608;-65
2023/08/11 09:21:31;;;;;;;1.20;0.80;;;;;;;24.67;67.45;100409.59;84237;283;136408;-64
2023/08/11 09:23:33;;;;;;;3.50;1.30;;;;;;;24.72;67.66;100405.80;84228;283;22548;-63
2023/08/11 09:25:36;;;;;;;2.80;1.70;;;;;;;24.75;67.67;100405.13;83945;283;136908;-62
2023/08/11 09:27:38;;;;;;;1.60;1.20;;;;;;;24.69;67.33;100398.45;84260;282;22550;-64
2023/08/11 09:29:40;;;;;;;3.70;1.00;;;;;;;24.65;67.93;100389.59;83989;282;137474;-62
2023/08/11 09:31:42;;;;;;;1.90;1.00;;;;;;;24.65;68.58;100385.23;84165;282;25373;-66
2023/08/11 09:33:44;;;;;;;4.20;1.30;;;;;;;24.63;68.24;100383.06;84106;282;136072;-62
2023/08/11 09:35:46;;;;;;;1.40;0.70;;;;;;;24.66;67.85;100386.86;84240;281;22549;-60
2023/08/11 09:37:48;;;;;;;1.30;1.20;;;;;;;24.65;68.18;100391.44;84197;282;137761;-65